Dr. Fridtjof Nansen — LDLG — position and weather

sailwx.info

Track history (hours):
 
Tides and Currents Weather Stations Pressure Air Temp Water Temp Dewpoint Dewpoint Depression Visibility Wind Speed Wind Dir Waves Ship Positions

Dr. Fridtjof Nansen

Last reported at 2018-Feb-07 21:13 UTC. Time now 2018-Jun-25 03:46 UTC.
Position S 29°01' E 031°56'.
Warning: this ship's position is months out of date.

Length 74 m; draft 5.5 m.

Type: SAR. MMSI: 224529000.

Date/timePositionNaut miles runAvg speedWind from/ knotsBaromVisibWave heightAir tempDewpointWater temp
2018-Feb-07 21:13S 29°01' E 031°56'11 0.4
2018-Feb-06 20:48S 29°05' E 032°08'1 0.2
2018-Feb-06 12:39S 29°06' E 032°08'1 4.9
2018-Feb-06 12:30S 29°06' E 032°08'3 5.9
2018-Feb-06 11:58S 29°03' E 032°10'1 2.1
2018-Feb-06 11:28S 29°04' E 032°10'2 3.7
2018-Feb-06 11:00S 29°06' E 032°09'2 4.5
2018-Feb-06 10:30S 29°06' E 032°06'3 6.5
2018-Feb-06 10:00S 29°04' E 032°03'9 3.0
2018-Feb-06 06:54S 29°03' E 031°52'3 5.8
2018-Feb-06 06:28S 29°04' E 031°55'4 7.5
2018-Feb-06 05:58S 29°05' E 031°58'2 1.6
2018-Feb-06 04:32S 29°07' E 032°01'0 8.2
2018-Feb-06 04:30S 29°07' E 032°01'5 3.8
2018-Feb-06 03:15S 29°09' E 032°05'3 7.7
2018-Feb-06 02:54S 29°09' E 032°08'2 2.9
2018-Feb-06 02:15S 29°08' E 032°11'1 0.9
2018-Feb-06 01:36S 29°08' E 032°10'0 0.9
2018-Feb-06 01:30S 29°09' E 032°10'  
2018-Feb-03 03:38S 29°08' E 031°40'1 4.6
2018-Feb-03 03:19S 29°06' E 031°40'22 1.8
2018-Feb-02 15:17S 29°21' E 031°59'3 4.2
2018-Feb-02 14:29S 29°18' E 031°57'0 0.9
2018-Feb-02 14:00S 29°18' E 031°57'0 0.9
2018-Feb-02 13:30S 29°19' E 031°57'1 1.6
2018-Feb-02 13:00S 29°18' E 031°57'1 1.5
2018-Feb-02 12:30S 29°19' E 031°57'0 0.1
2018-Feb-02 12:00S 29°19' E 031°57'1 1.6
2018-Feb-02 11:30S 29°18' E 031°57'1 1.0
2018-Feb-02 11:00S 29°19' E 031°57'1 1.3
2018-Feb-02 10:30S 29°18' E 031°58'1 1.8
2018-Feb-02 10:00S 29°19' E 031°57'2 3.3
2018-Feb-02 09:30S 29°20' E 031°56'4 8.1
2018-Feb-02 09:00S 29°24' E 031°53'1 1.5
2018-Feb-02 08:30S 29°24' E 031°53'6 7.7
2018-Feb-02 07:45S 29°20' E 031°57'4 7.3
2018-Feb-02 07:10S 29°23' E 031°54'1 7.8
2018-Feb-02 06:59S 29°24' E 031°53'0 0.4
2018-Feb-02 06:30S 29°24' E 031°53'4 7.3
2018-Feb-02 06:00S 29°21' E 031°56'1 1.9
2018-Feb-02 05:30S 29°20' E 031°56'3 6.6
2018-Feb-02 05:00S 29°23' E 031°54'3 5.9
2018-Feb-02 04:30S 29°25' E 031°52'3 6.8
2018-Feb-02 04:00S 29°23' E 031°54'3 6.8
2018-Feb-02 03:30S 29°20' E 031°57'2 3.5
2018-Feb-02 03:00S 29°22' E 031°56'4 7.0
2018-Feb-02 02:30S 29°24' E 031°53'0 0.2
2018-Feb-02 02:00S 29°24' E 031°53'3 6.9
2018-Feb-02 01:30S 29°22' E 031°56'2 4.3
2018-Feb-02 01:00S 29°20' E 031°57'3 6.9
2018-Feb-02 00:30S 29°23' E 031°55'3 6.7
2018-Feb-02 00:00S 29°25' E 031°52'2 4.5
2018-Feb-01 23:30S 29°24' E 031°54'3 6.8
2018-Feb-01 23:00S 29°21' E 031°56'4 3.6
2018-Feb-01 21:59S 29°24' E 031°54'2 4.1
2018-Feb-01 21:30S 29°26' E 031°53'3 0.5
2018-Feb-01 15:16S 29°25' E 031°56'6 1.6
2018-Feb-01 11:36S 29°20' E 032°01'1 0.8
2018-Feb-01 10:37S 29°21' E 032°00'2 1.6
2018-Feb-01 09:07S 29°21' E 031°57'0 2.6
2018-Feb-01 08:57S 29°21' E 031°57'3 6.3
2018-Feb-01 08:30S 29°20' E 031°54'11 9.2
2018-Feb-01 07:20S 29°17' E 031°42'2 7.2
2018-Feb-01 07:00S 29°15' E 031°40'1 2.5
2018-Feb-01 06:30S 29°14' E 031°40'2 3.5
2018-Feb-01 06:00S 29°16' E 031°39'5 4.8
2018-Feb-01 05:02S 29°15' E 031°34'0 4.0
2018-Feb-01 05:01S 29°15' E 031°34'1 1.3
2018-Feb-01 04:29S 29°15' E 031°34'1 2.0
2018-Feb-01 04:00S 29°14' E 031°33'0 0.0
2018-Feb-01 03:00S 29°14' E 031°33'3 4.8
2018-Feb-01 02:25S 29°16' E 031°31'410.0
2018-Feb-01 02:00S 29°19' E 031°28'3 6.1
2018-Feb-01 01:30S 29°22' E 031°28'4 8.4
2018-Feb-01 01:00S 29°24' E 031°32'4 7.8
2018-Feb-01 00:30S 29°26' E 031°36'2 4.6
2018-Feb-01 00:00S 29°26' E 031°39'2 2.1
2018-Jan-31 22:59S 29°27' E 031°41'2 5.1
2018-Jan-31 22:30S 29°28' E 031°44'5 3.2
2018-Jan-31 21:00S 29°29' E 031°49'5 9.7
2018-Jan-31 20:30S 29°31' E 031°54'3 4.8
2018-Jan-31 19:53S 29°34' E 031°54'2 6.4
2018-Jan-31 19:30S 29°36' E 031°55'8 5.6
2018-Jan-31 18:06S 29°42' E 031°50'0 1.0
2018-Jan-31 18:00S 29°42' E 031°50'0 0.8
2018-Jan-31 17:30S 29°42' E 031°50'0 0.0
2018-Jan-31 17:00S 29°42' E 031°50'9 1.7
2018-Jan-31 11:59S 29°37' E 031°42'3 6.4
2018-Jan-31 11:30S 29°36' E 031°38'2 4.3
2018-Jan-31 11:00S 29°36' E 031°36'1 2.3
2018-Jan-31 10:30S 29°35' E 031°37'2 3.2
2018-Jan-31 10:00S 29°34' E 031°38'4 7.7
2018-Jan-31 09:30S 29°35' E 031°34'1 2.0
2018-Jan-31 09:00S 29°34' E 031°34'0 0.3
2018-Jan-31 08:30S 29°35' E 031°34'4 7.5
2018-Jan-31 08:00S 29°33' E 031°30'3 5.7
2018-Jan-31 07:30S 29°32' E 031°26'4 8.7
2018-Jan-31 07:00S 29°31' E 031°22'2 3.3
2018-Jan-31 06:30S 29°31' E 031°20'2 3.2
2018-Jan-31 06:00S 29°30' E 031°21'1 3.0
2018-Jan-31 05:30S 29°30' E 031°19'3 5.0
2018-Jan-31 05:00S 29°30' E 031°17'1 1.1
2018-Jan-31 04:30S 29°30' E 031°16'0 0.6
2018-Jan-31 04:00S 29°29' E 031°16'4 7.1
2018-Jan-31 03:30S 29°32' E 031°14'5 9.5
2018-Jan-31 03:00S 29°36' E 031°11'3 5.1
2018-Jan-31 02:30S 29°38' E 031°13'4 8.6
2018-Jan-31 02:00S 29°39' E 031°17'4 8.8
2018-Jan-31 01:30S 29°41' E 031°22'1 2.7
2018-Jan-31 01:00S 29°41' E 031°24'3 2.6
2018-Jan-31 00:00S 29°40' E 031°26'2 4.0
2018-Jan-30 23:30S 29°41' E 031°24'3 5.5
2018-Jan-30 23:00S 29°43' E 031°26'1 2.4
2018-Jan-30 22:30S 29°43' E 031°28'2 1.9
2018-Jan-30 21:30S 29°42' E 031°29'3 5.3
2018-Jan-30 21:00S 29°45' E 031°31'510.7
2018-Jan-30 20:30S 29°46' E 031°37'510.6
2018-Jan-30 20:00S 29°49' E 031°42'510.5
2018-Jan-30 19:30S 29°51' E 031°48'5 9.3
2018-Jan-30 19:00S 29°53' E 031°53'2 2.9
2018-Jan-30 18:27S 29°55' E 031°53'2 3.2
2018-Jan-30 17:58S 29°55' E 031°51'2 4.5
2018-Jan-30 17:30S 29°55' E 031°49'3 5.2
2018-Jan-30 17:00S 29°55' E 031°46'4 7.2
2018-Jan-30 16:30S 29°55' E 031°41'4 7.7
2018-Jan-30 16:00S 29°55' E 031°37'4 7.4
2018-Jan-30 15:30S 29°56' E 031°33'1 2.1
2018-Jan-30 15:00S 29°56' E 031°32'1 1.5
2018-Jan-30 14:30S 29°56' E 031°31'2 2.3
2018-Jan-30 13:30S 29°57' E 031°29'1 1.2
2018-Jan-30 13:00S 29°57' E 031°28'0 0.0
2018-Jan-30 12:30S 29°57' E 031°28'0 1.0
2018-Jan-30 12:00S 29°57' E 031°29'1 1.8
2018-Jan-30 11:30S 29°57' E 031°30'2 1.6
2018-Jan-30 10:30S 29°56' E 031°31'2 1.9
2018-Jan-30 09:30S 29°55' E 031°33'3 6.4
2018-Jan-30 09:00S 29°55' E 031°29'4 8.5
2018-Jan-30 08:30S 29°55' E 031°24'4 7.2
2018-Jan-30 08:00S 29°55' E 031°20'4 7.3
2018-Jan-30 07:30S 29°54' E 031°16'4 7.7
2018-Jan-30 07:00S 29°54' E 031°12'1 1.5
2018-Jan-30 06:30S 29°54' E 031°11'1 2.4
2018-Jan-30 06:00S 29°53' E 031°12'2 3.3
2018-Jan-30 05:30S 29°52' E 031°13'2 5.0
2018-Jan-30 05:00S 29°54' E 031°11'1 1.2
2018-Jan-30 04:30S 29°54' E 031°10'0 0.0
2018-Jan-30 04:00S 29°54' E 031°10'0 0.0
2018-Jan-30 03:30S 29°54' E 031°10'0 0.3
2018-Jan-30 03:00S 29°54' E 031°10'1 2.7
2018-Jan-30 02:30S 29°53' E 031°09'1 1.9
2018-Jan-30 02:00S 29°54' E 031°09'0 0.4
2018-Jan-30 01:30S 29°54' E 031°09'2 3.2
2018-Jan-30 01:00S 29°55' E 031°07'3 6.8
2018-Jan-30 00:30S 29°58' E 031°05'4 8.5
2018-Jan-30 00:00S 30°01' E 031°02'4 8.4
2018-Jan-29 23:30S 30°05' E 030°59'4 8.0
2018-Jan-29 23:00S 30°08' E 030°57'4 8.1
2018-Jan-29 22:30S 30°11' E 030°54'4 7.9
2018-Jan-29 22:00S 30°15' E 030°51'3 5.3
2018-Jan-29 21:30S 30°17' E 030°50'0 0.8
2018-Jan-29 20:59S 30°17' E 030°49'3 4.2
2018-Jan-29 20:10S 30°16' E 030°53'2 9.3
2018-Jan-29 20:00S 30°14' E 030°54'5 9.2
2018-Jan-29 19:30S 30°11' E 030°57'4 8.8
2018-Jan-29 19:00S 30°07' E 031°00'4 8.6
2018-Jan-29 18:30S 30°04' E 031°03'4 8.6
2018-Jan-29 18:00S 29°60' E 031°05'4 8.8
2018-Jan-29 17:30S 29°56' E 031°08'2 3.5
2018-Jan-29 17:00S 29°54' E 031°09'0 0.9
2018-Jan-29 16:30S 29°54' E 031°08'3 6.4
2018-Jan-29 16:00S 29°54' E 031°04'2 3.3
2018-Jan-29 15:31S 29°55' E 031°03'2 3.0
2018-Jan-29 15:00S 29°54' E 031°04'0 1.0
2018-Jan-29 14:30S 29°54' E 031°04'0 0.0
2018-Jan-29 14:00S 29°54' E 031°04'2 3.4
2018-Jan-29 13:30S 29°56' E 031°03'5 9.9
2018-Jan-29 13:00S 30°00' E 031°01'612.9
2018-Jan-29 12:30S 30°06' E 030°58'612.9
2018-Jan-29 12:01S 30°12' E 030°55'612.6
2018-Jan-29 11:30S 30°18' E 030°51'2 3.6
2018-Jan-29 10:56S 30°19' E 030°52'1 1.5
2018-Jan-29 10:30S 30°19' E 030°53'0 0.5
2018-Jan-29 09:51S 30°18' E 030°53'1 3.9
2018-Jan-29 09:30S 30°19' E 030°54'1 1.0
2018-Jan-29 08:56S 30°19' E 030°54'0 0.8
2018-Jan-29 08:24S 30°18' E 030°55'1 3.1
2018-Jan-29 08:00S 30°17' E 030°55'4 5.2
2018-Jan-29 07:10S 30°21' E 030°58'0 1.1
2018-Jan-29 07:00S 30°21' E 030°58'1 1.2
2018-Jan-29 06:30S 30°20' E 030°58'0 0.9
2018-Jan-29 05:57S 30°21' E 030°58'0 0.5
2018-Jan-29 05:30S 30°21' E 030°58'3 5.1
2018-Jan-29 04:57S 30°22' E 031°00'4 9.8
2018-Jan-29 04:30S 30°24' E 031°05'1 2.4
2018-Jan-29 04:00S 30°25' E 031°06'1 1.4
2018-Jan-29 03:30S 30°25' E 031°06'0 0.4
2018-Jan-29 02:58S 30°24' E 031°06'0 0.5
2018-Jan-29 02:30S 30°25' E 031°06'4 9.0
2018-Jan-29 02:01S 30°27' E 031°01'  
Track history (hours):
 
Tides and Currents Weather Stations Pressure Air Temp Water Temp Dewpoint Dewpoint Depression Visibility Wind Speed Wind Dir Waves Ship Positions

Dr. Fridtjof Nansen

Last reported at 2018-Feb-07 21:13 UTC. Time now 2018-Jun-25 03:46 UTC.
Position S 29°01' E 031°56'.
Warning: this ship's position is months out of date.

Length 74 m; draft 5.5 m.

Type: SAR. MMSI: 224529000.

Date/timePositionNaut miles runAvg speedWind from/ knotsBaromVisibWave heightAir tempDewpointWater temp
2018-Feb-07 21:13S 29°01' E 031°56'11 0.4
2018-Feb-06 20:48S 29°05' E 032°08'1 0.2
2018-Feb-06 12:39S 29°06' E 032°08'1 4.9
2018-Feb-06 12:30S 29°06' E 032°08'3 5.9
2018-Feb-06 11:58S 29°03' E 032°10'1 2.1
2018-Feb-06 11:28S 29°04' E 032°10'2 3.7
2018-Feb-06 11:00S 29°06' E 032°09'2 4.5
2018-Feb-06 10:30S 29°06' E 032°06'3 6.5
2018-Feb-06 10:00S 29°04' E 032°03'9 3.0
2018-Feb-06 06:54S 29°03' E 031°52'3 5.8
2018-Feb-06 06:28S 29°04' E 031°55'4 7.5
2018-Feb-06 05:58S 29°05' E 031°58'2 1.6
2018-Feb-06 04:32S 29°07' E 032°01'0 8.2
2018-Feb-06 04:30S 29°07' E 032°01'5 3.8
2018-Feb-06 03:15S 29°09' E 032°05'3 7.7
2018-Feb-06 02:54S 29°09' E 032°08'2 2.9
2018-Feb-06 02:15S 29°08' E 032°11'1 0.9
2018-Feb-06 01:36S 29°08' E 032°10'0 0.9
2018-Feb-06 01:30S 29°09' E 032°10'  
2018-Feb-03 03:38S 29°08' E 031°40'1 4.6
2018-Feb-03 03:19S 29°06' E 031°40'22 1.8
2018-Feb-02 15:17S 29°21' E 031°59'3 4.2
2018-Feb-02 14:29S 29°18' E 031°57'0 0.9
2018-Feb-02 14:00S 29°18' E 031°57'0 0.9
2018-Feb-02 13:30S 29°19' E 031°57'1 1.6
2018-Feb-02 13:00S 29°18' E 031°57'1 1.5
2018-Feb-02 12:30S 29°19' E 031°57'0 0.1
2018-Feb-02 12:00S 29°19' E 031°57'1 1.6
2018-Feb-02 11:30S 29°18' E 031°57'1 1.0
2018-Feb-02 11:00S 29°19' E 031°57'1 1.3
2018-Feb-02 10:30S 29°18' E 031°58'1 1.8
2018-Feb-02 10:00S 29°19' E 031°57'2 3.3
2018-Feb-02 09:30S 29°20' E 031°56'4 8.1
2018-Feb-02 09:00S 29°24' E 031°53'1 1.5
2018-Feb-02 08:30S 29°24' E 031°53'6 7.7
2018-Feb-02 07:45S 29°20' E 031°57'4 7.3
2018-Feb-02 07:10S 29°23' E 031°54'1 7.8
2018-Feb-02 06:59S 29°24' E 031°53'0 0.4
2018-Feb-02 06:30S 29°24' E 031°53'4 7.3
2018-Feb-02 06:00S 29°21' E 031°56'1 1.9
2018-Feb-02 05:30S 29°20' E 031°56'3 6.6
2018-Feb-02 05:00S 29°23' E 031°54'3 5.9
2018-Feb-02 04:30S 29°25' E 031°52'3 6.8
2018-Feb-02 04:00S 29°23' E 031°54'3 6.8
2018-Feb-02 03:30S 29°20' E 031°57'2 3.5
2018-Feb-02 03:00S 29°22' E 031°56'4 7.0
2018-Feb-02 02:30S 29°24' E 031°53'0 0.2
2018-Feb-02 02:00S 29°24' E 031°53'3 6.9
2018-Feb-02 01:30S 29°22' E 031°56'2 4.3
2018-Feb-02 01:00S 29°20' E 031°57'3 6.9
2018-Feb-02 00:30S 29°23' E 031°55'3 6.7
2018-Feb-02 00:00S 29°25' E 031°52'2 4.5
2018-Feb-01 23:30S 29°24' E 031°54'3 6.8
2018-Feb-01 23:00S 29°21' E 031°56'4 3.6
2018-Feb-01 21:59S 29°24' E 031°54'2 4.1
2018-Feb-01 21:30S 29°26' E 031°53'3 0.5
2018-Feb-01 15:16S 29°25' E 031°56'6 1.6
2018-Feb-01 11:36S 29°20' E 032°01'1 0.8
2018-Feb-01 10:37S 29°21' E 032°00'2 1.6
2018-Feb-01 09:07S 29°21' E 031°57'0 2.6
2018-Feb-01 08:57S 29°21' E 031°57'3 6.3
2018-Feb-01 08:30S 29°20' E 031°54'11 9.2
2018-Feb-01 07:20S 29°17' E 031°42'2 7.2
2018-Feb-01 07:00S 29°15' E 031°40'1 2.5
2018-Feb-01 06:30S 29°14' E 031°40'2 3.5
2018-Feb-01 06:00S 29°16' E 031°39'5 4.8
2018-Feb-01 05:02S 29°15' E 031°34'0 4.0
2018-Feb-01 05:01S 29°15' E 031°34'1 1.3
2018-Feb-01 04:29S 29°15' E 031°34'1 2.0
2018-Feb-01 04:00S 29°14' E 031°33'0 0.0
2018-Feb-01 03:00S 29°14' E 031°33'3 4.8
2018-Feb-01 02:25S 29°16' E 031°31'410.0
2018-Feb-01 02:00S 29°19' E 031°28'3 6.1
2018-Feb-01 01:30S 29°22' E 031°28'4 8.4
2018-Feb-01 01:00S 29°24' E 031°32'4 7.8
2018-Feb-01 00:30S 29°26' E 031°36'2 4.6
2018-Feb-01 00:00S 29°26' E 031°39'2 2.1
2018-Jan-31 22:59S 29°27' E 031°41'2 5.1
2018-Jan-31 22:30S 29°28' E 031°44'5 3.2
2018-Jan-31 21:00S 29°29' E 031°49'5 9.7
2018-Jan-31 20:30S 29°31' E 031°54'3 4.8
2018-Jan-31 19:53S 29°34' E 031°54'2 6.4
2018-Jan-31 19:30S 29°36' E 031°55'8 5.6
2018-Jan-31 18:06S 29°42' E 031°50'0 1.0
2018-Jan-31 18:00S 29°42' E 031°50'0 0.8
2018-Jan-31 17:30S 29°42' E 031°50'0 0.0
2018-Jan-31 17:00S 29°42' E 031°50'9 1.7
2018-Jan-31 11:59S 29°37' E 031°42'3 6.4
2018-Jan-31 11:30S 29°36' E 031°38'2 4.3
2018-Jan-31 11:00S 29°36' E 031°36'1 2.3
2018-Jan-31 10:30S 29°35' E 031°37'2 3.2
2018-Jan-31 10:00S 29°34' E 031°38'4 7.7
2018-Jan-31 09:30S 29°35' E 031°34'1 2.0
2018-Jan-31 09:00S 29°34' E 031°34'0 0.3
2018-Jan-31 08:30S 29°35' E 031°34'4 7.5
2018-Jan-31 08:00S 29°33' E 031°30'3 5.7
2018-Jan-31 07:30S 29°32' E 031°26'4 8.7
2018-Jan-31 07:00S 29°31' E 031°22'2 3.3
2018-Jan-31 06:30S 29°31' E 031°20'2 3.2
2018-Jan-31 06:00S 29°30' E 031°21'1 3.0
2018-Jan-31 05:30S 29°30' E 031°19'3 5.0
2018-Jan-31 05:00S 29°30' E 031°17'1 1.1
2018-Jan-31 04:30S 29°30' E 031°16'0 0.6
2018-Jan-31 04:00S 29°29' E 031°16'4 7.1
2018-Jan-31 03:30S 29°32' E 031°14'5 9.5
2018-Jan-31 03:00S 29°36' E 031°11'3 5.1
2018-Jan-31 02:30S 29°38' E 031°13'4 8.6
2018-Jan-31 02:00S 29°39' E 031°17'4 8.8
2018-Jan-31 01:30S 29°41' E 031°22'1 2.7
2018-Jan-31 01:00S 29°41' E 031°24'3 2.6
2018-Jan-31 00:00S 29°40' E 031°26'2 4.0
2018-Jan-30 23:30S 29°41' E 031°24'3 5.5
2018-Jan-30 23:00S 29°43' E 031°26'1 2.4
2018-Jan-30 22:30S 29°43' E 031°28'2 1.9
2018-Jan-30 21:30S 29°42' E 031°29'3 5.3
2018-Jan-30 21:00S 29°45' E 031°31'510.7
2018-Jan-30 20:30S 29°46' E 031°37'510.6
2018-Jan-30 20:00S 29°49' E 031°42'510.5
2018-Jan-30 19:30S 29°51' E 031°48'5 9.3
2018-Jan-30 19:00S 29°53' E 031°53'2 2.9
2018-Jan-30 18:27S 29°55' E 031°53'2 3.2
2018-Jan-30 17:58S 29°55' E 031°51'2 4.5
2018-Jan-30 17:30S 29°55' E 031°49'3 5.2
2018-Jan-30 17:00S 29°55' E 031°46'4 7.2
2018-Jan-30 16:30S 29°55' E 031°41'4 7.7
2018-Jan-30 16:00S 29°55' E 031°37'4 7.4
2018-Jan-30 15:30S 29°56' E 031°33'1 2.1
2018-Jan-30 15:00S 29°56' E 031°32'1 1.5
2018-Jan-30 14:30S 29°56' E 031°31'2 2.3
2018-Jan-30 13:30S 29°57' E 031°29'1 1.2
2018-Jan-30 13:00S 29°57' E 031°28'0 0.0
2018-Jan-30 12:30S 29°57' E 031°28'0 1.0
2018-Jan-30 12:00S 29°57' E 031°29'1 1.8
2018-Jan-30 11:30S 29°57' E 031°30'2 1.6
2018-Jan-30 10:30S 29°56' E 031°31'2 1.9
2018-Jan-30 09:30S 29°55' E 031°33'3 6.4
2018-Jan-30 09:00S 29°55' E 031°29'4 8.5
2018-Jan-30 08:30S 29°55' E 031°24'4 7.2
2018-Jan-30 08:00S 29°55' E 031°20'4 7.3
2018-Jan-30 07:30S 29°54' E 031°16'4 7.7
2018-Jan-30 07:00S 29°54' E 031°12'1 1.5
2018-Jan-30 06:30S 29°54' E 031°11'1 2.4
2018-Jan-30 06:00S 29°53' E 031°12'2 3.3
2018-Jan-30 05:30S 29°52' E 031°13'2 5.0
2018-Jan-30 05:00S 29°54' E 031°11'1 1.2
2018-Jan-30 04:30S 29°54' E 031°10'0 0.0
2018-Jan-30 04:00S 29°54' E 031°10'0 0.0
2018-Jan-30 03:30S 29°54' E 031°10'0 0.3
2018-Jan-30 03:00S 29°54' E 031°10'1 2.7
2018-Jan-30 02:30S 29°53' E 031°09'1 1.9
2018-Jan-30 02:00S 29°54' E 031°09'0 0.4
2018-Jan-30 01:30S 29°54' E 031°09'2 3.2
2018-Jan-30 01:00S 29°55' E 031°07'3 6.8
2018-Jan-30 00:30S 29°58' E 031°05'4 8.5
2018-Jan-30 00:00S 30°01' E 031°02'4 8.4
2018-Jan-29 23:30S 30°05' E 030°59'4 8.0
2018-Jan-29 23:00S 30°08' E 030°57'4 8.1
2018-Jan-29 22:30S 30°11' E 030°54'4 7.9
2018-Jan-29 22:00S 30°15' E 030°51'3 5.3
2018-Jan-29 21:30S 30°17' E 030°50'0 0.8
2018-Jan-29 20:59S 30°17' E 030°49'3 4.2
2018-Jan-29 20:10S 30°16' E 030°53'2 9.3
2018-Jan-29 20:00S 30°14' E 030°54'5 9.2
2018-Jan-29 19:30S 30°11' E 030°57'4 8.8
2018-Jan-29 19:00S 30°07' E 031°00'4 8.6
2018-Jan-29 18:30S 30°04' E 031°03'4 8.6
2018-Jan-29 18:00S 29°60' E 031°05'4 8.8
2018-Jan-29 17:30S 29°56' E 031°08'2 3.5
2018-Jan-29 17:00S 29°54' E 031°09'0 0.9
2018-Jan-29 16:30S 29°54' E 031°08'3 6.4
2018-Jan-29 16:00S 29°54' E 031°04'2 3.3
2018-Jan-29 15:31S 29°55' E 031°03'2 3.0
2018-Jan-29 15:00S 29°54' E 031°04'0 1.0
2018-Jan-29 14:30S 29°54' E 031°04'0 0.0
2018-Jan-29 14:00S 29°54' E 031°04'2 3.4
2018-Jan-29 13:30S 29°56' E 031°03'5 9.9
2018-Jan-29 13:00S 30°00' E 031°01'612.9
2018-Jan-29 12:30S 30°06' E 030°58'612.9
2018-Jan-29 12:01S 30°12' E 030°55'612.6
2018-Jan-29 11:30S 30°18' E 030°51'2 3.6
2018-Jan-29 10:56S 30°19' E 030°52'1 1.5
2018-Jan-29 10:30S 30°19' E 030°53'0 0.5
2018-Jan-29 09:51S 30°18' E 030°53'1 3.9
2018-Jan-29 09:30S 30°19' E 030°54'1 1.0
2018-Jan-29 08:56S 30°19' E 030°54'0 0.8
2018-Jan-29 08:24S 30°18' E 030°55'1 3.1
2018-Jan-29 08:00S 30°17' E 030°55'4 5.2
2018-Jan-29 07:10S 30°21' E 030°58'0 1.1
2018-Jan-29 07:00S 30°21' E 030°58'1 1.2
2018-Jan-29 06:30S 30°20' E 030°58'0 0.9
2018-Jan-29 05:57S 30°21' E 030°58'0 0.5
2018-Jan-29 05:30S 30°21' E 030°58'3 5.1
2018-Jan-29 04:57S 30°22' E 031°00'4 9.8
2018-Jan-29 04:30S 30°24' E 031°05'1 2.4
2018-Jan-29 04:00S 30°25' E 031°06'1 1.4
2018-Jan-29 03:30S 30°25' E 031°06'0 0.4
2018-Jan-29 02:58S 30°24' E 031°06'0 0.5
2018-Jan-29 02:30S 30°25' E 031°06'4 9.0
2018-Jan-29 02:01S 30°27' E 031°01'  

Dump ship's entire track history